Time;durP1;ratioP1;P1;durP2;ratioP2;P2;SDS_P1;SDS_P2;PMS_P1;PMS_P2;Temp;Humidity;BMP_temperature;BMP_pressure;BME280_temperature;BME280_humidity;BME280_pressure;Samples;Min_cycle;Max_cycle;Signal;HPM_P1;HPM_P2
2022/10/30 00:01:48;;;;;;;0.10;0.10;;;;;;;14.32;100.00;101622.94;5018711;28;20040;-70
2022/10/30 00:04:13;;;;;;;0.10;0.10;;;;;;;14.46;100.00;101622.69;5015306;28;20746;-69
2022/10/30 00:06:38;;;;;;;0.10;0.10;;;;;;;14.48;100.00;101631.53;5019270;28;20025;-69
2022/10/30 00:09:04;;;;;;;0.10;0.10;;;;;;;14.43;100.00;101631.03;5034185;28;20032;-69
2022/10/30 00:11:29;;;;;;;0.00;0.00;;;;;;;14.39;100.00;101626.84;5039090;28;20536;-69
2022/10/30 00:13:54;;;;;;;0.10;0.10;;;;;;;14.34;100.00;101627.25;5042612;28;20029;-69
2022/10/30 00:16:20;;;;;;;0.10;0.10;;;;;;;14.29;100.00;101631.31;5046419;28;20477;-69
2022/10/30 00:18:45;;;;;;;0.10;0.10;;;;;;;14.20;100.00;101620.25;5025662;28;20045;-69
2022/10/30 00:21:13;;;;;;;0.10;0.10;;;;;;;14.26;100.00;101618.91;5024939;28;20035;-69
2022/10/30 00:23:39;;;;;;;0.10;0.10;;;;;;;14.17;100.00;101616.97;5037120;28;20040;-69
2022/10/30 00:26:06;;;;;;;0.10;0.10;;;;;;;14.04;100.00;101625.16;5022595;28;20035;-69
2022/10/30 00:28:32;;;;;;;0.10;0.10;;;;;;;13.87;100.00;101596.84;5019265;28;20416;-70
2022/10/30 00:30:58;;;;;;;0.10;0.10;;;;;;;13.97;100.00;101614.00;5002796;28;20037;-70
2022/10/30 00:33:24;;;;;;;0.10;0.10;;;;;;;14.04;100.00;101614.34;5037363;28;20047;-69
2022/10/30 00:35:49;;;;;;;0.10;0.10;;;;;;;13.98;100.00;101622.97;5036331;28;20501;-69
2022/10/30 00:38:14;;;;;;;0.10;0.10;;;;;;;13.99;100.00;101622.84;5021196;28;20066;-69
2022/10/30 00:40:39;;;;;;;0.10;0.10;;;;;;;14.07;100.00;101622.22;5041646;28;20025;-69
2022/10/30 00:43:29;;;;;;;0.05;0.05;;;;;;;14.15;100.00;101632.44;5042221;28;20060;-69
2022/10/30 00:46:01;;;;;;;0.10;0.10;;;;;;;14.28;100.00;101627.75;5017877;28;20537;-69
2022/10/30 00:48:27;;;;;;;0.10;0.10;;;;;;;14.27;100.00;101620.63;5022702;28;20388;-69
2022/10/30 00:50:52;;;;;;;0.05;0.05;;;;;;;14.16;100.00;101610.69;5035645;28;20033;-69
2022/10/30 00:53:19;;;;;;;0.10;0.10;;;;;;;14.16;100.00;101620.66;5020310;28;20369;-69
2022/10/30 00:55:51;;;;;;;0.10;0.10;;;;;;;14.04;100.00;101620.63;5041274;28;20108;-70
2022/10/30 00:58:20;;;;;;;0.10;0.10;;;;;;;13.92;100.00;101605.41;5028587;28;20515;-69
2022/10/30 01:00:49;;;;;;;0.10;0.10;;;;;;;13.85;100.00;101602.34;5038165;28;20036;-69
2022/10/30 01:03:15;;;;;;;0.00;0.00;;;;;;;13.89;100.00;101602.97;5020640;28;20127;-69
2022/10/30 01:05:41;;;;;;;0.10;0.10;;;;;;;13.90;100.00;101602.00;5045090;28;20055;-69
2022/10/30 01:08:06;;;;;;;0.10;0.10;;;;;;;13.91;100.00;101609.97;5035146;28;20029;-69
2022/10/30 01:10:32;;;;;;;0.10;0.10;;;;;;;13.88;100.00;101614.75;5023323;28;20041;-69
2022/10/30 01:12:58;;;;;;;0.10;0.10;;;;;;;13.90;100.00;101618.19;5043550;28;20075;-69
2022/10/30 01:15:29;;;;;;;0.10;0.10;;;;;;;13.87;100.00;101599.53;5023310;28;20500;-69
2022/10/30 01:18:25;;;;;;;0.10;0.10;;;;;;;14.05;100.00;101618.78;5026326;28;20353;-69
2022/10/30 01:21:42;;;;;;;0.10;0.10;;;;;;;14.09;100.00;101615.72;5025856;28;20450;-69
2022/10/30 01:24:17;;;;;;;0.13;0.10;;;;;;;14.01;100.00;101617.34;5001871;28;20119;-69
2022/10/30 01:26:48;;;;;;;0.10;0.10;;;;;;;13.84;100.00;101592.53;5039969;28;20060;-68
2022/10/30 01:29:29;;;;;;;0.10;0.10;;;;;;;13.89;100.00;101628.13;5024418;28;20028;-69
2022/10/30 01:32:29;;;;;;;0.10;0.10;;;;;;;13.78;100.00;101625.41;5044589;28;20036;-68
2022/10/30 01:35:24;;;;;;;0.10;0.10;;;;;;;13.91;100.00;101622.59;5038840;28;20029;-69
2022/10/30 01:37:54;;;;;;;;;;;;;;;13.96;100.00;101625.78;5043493;28;20079;-69
2022/10/30 01:40:20;;;;;;;0.15;0.15;;;;;;;13.94;100.00;101612.41;5022461;28;20046;-69
2022/10/30 01:42:48;;;;;;;0.10;0.10;;;;;;;14.10;100.00;101630.06;5043201;28;20074;-69
2022/10/30 01:45:19;;;;;;;0.10;0.10;;;;;;;14.08;100.00;101626.63;5033177;28;20513;-69
2022/10/30 01:47:53;;;;;;;0.10;0.10;;;;;;;13.95;100.00;101606.03;5041211;28;20480;-69
2022/10/30 01:50:42;;;;;;;0.10;0.10;;;;;;;13.95;100.00;101627.63;5038233;28;20029;-70
2022/10/30 01:53:34;;;;;;;0.10;0.10;;;;;;;13.91;100.00;101618.06;5042150;28;20056;-68
2022/10/30 01:56:15;;;;;;;0.10;0.10;;;;;;;13.80;100.00;101626.13;5009993;28;20021;-69
2022/10/30 01:58:46;;;;;;;0.10;0.10;;;;;;;13.80;100.00;101618.91;5040610;28;20028;-69
2022/10/30 02:01:12;;;;;;;0.10;0.10;;;;;;;13.77;100.00;101610.22;5025497;28;20028;-69
2022/10/30 02:03:38;;;;;;;0.10;0.10;;;;;;;13.83;100.00;101616.97;5043523;28;20025;-69
2022/10/30 02:06:04;;;;;;;0.00;0.00;;;;;;;13.87;100.00;101618.44;5023183;28;20021;-69
2022/10/30 02:08:29;;;;;;;0.00;0.00;;;;;;;13.95;100.00;101629.47;5042929;28;20028;-69
2022/10/30 02:10:55;;;;;;;0.10;0.10;;;;;;;13.98;100.00;101631.06;5041282;28;20021;-69
2022/10/30 02:13:20;;;;;;;0.10;0.10;;;;;;;14.04;100.00;101627.88;5024367;28;20033;-69
2022/10/30 02:15:46;;;;;;;0.10;0.10;;;;;;;14.02;100.00;101625.28;5023696;28;20037;-69
2022/10/30 02:18:12;;;;;;;0.10;0.10;;;;;;;13.99;100.00;101617.44;5039479;28;20033;-68
2022/10/30 02:20:38;;;;;;;0.10;0.10;;;;;;;13.97;100.00;101626.66;5040380;28;20056;-69
2022/10/30 02:23:05;;;;;;;0.10;0.10;;;;;;;13.74;100.00;101605.91;5019737;28;20020;-70
2022/10/30 02:25:30;;;;;;;0.10;0.10;;;;;;;13.91;100.00;101631.56;5037686;28;20411;-71
2022/10/30 02:27:56;;;;;;;0.10;0.10;;;;;;;13.85;100.00;101623.09;5021141;28;20025;-70
2022/10/30 02:30:21;;;;;;;0.10;0.10;;;;;;;13.82;100.00;101629.56;5021958;28;20072;-70
2022/10/30 02:32:46;;;;;;;0.10;0.10;;;;;;;13.76;100.00;101630.94;5038962;28;20478;-70
2022/10/30 02:35:12;;;;;;;0.05;0.05;;;;;;;13.70;100.00;101634.09;5018573;28;20060;-69
2022/10/30 02:37:38;;;;;;;0.10;0.10;;;;;;;13.58;100.00;101600.00;5020520;28;20291;-69
2022/10/30 02:40:04;;;;;;;0.10;0.10;;;;;;;13.65;100.00;101620.09;5038212;28;20039;-69
2022/10/30 02:42:30;;;;;;;0.10;0.10;;;;;;;13.59;100.00;101629.56;5035206;28;20035;-70
2022/10/30 02:44:55;;;;;;;0.08;0.08;;;;;;;13.41;100.00;101634.53;5041433;28;20029;-69
2022/10/30 02:47:20;;;;;;;0.10;0.10;;;;;;;13.34;100.00;101630.59;5035862;28;20052;-69
2022/10/30 02:49:46;;;;;;;0.10;0.10;;;;;;;13.17;100.00;101635.41;5038008;28;20469;-70
2022/10/30 02:52:11;;;;;;;0.10;0.10;;;;;;;13.11;100.00;101645.81;5039638;28;20449;-69
2022/10/30 02:54:36;;;;;;;0.20;0.20;;;;;;;13.14;100.00;101634.81;5041357;28;20074;-69
2022/10/30 02:57:02;;;;;;;0.08;0.08;;;;;;;13.18;100.00;101634.44;5029227;28;20028;-68
2022/10/30 02:59:28;;;;;;;0.10;0.10;;;;;;;13.19;100.00;101638.00;5039838;28;20040;-69
2022/10/30 03:01:53;;;;;;;0.05;0.05;;;;;;;13.23;100.00;101642.19;5041137;28;20485;-69
2022/10/30 03:04:18;;;;;;;0.05;0.05;;;;;;;13.22;100.00;101639.59;5045308;28;20032;-69
2022/10/30 03:06:44;;;;;;;0.10;0.10;;;;;;;13.28;100.00;101649.94;5043693;28;20027;-69
2022/10/30 03:09:09;;;;;;;0.10;0.10;;;;;;;13.27;100.00;101630.19;5038524;28;20075;-69
2022/10/30 03:11:34;;;;;;;0.10;0.10;;;;;;;13.33;100.00;101623.47;5039360;28;20091;-68
2022/10/30 03:14:00;;;;;;;0.00;0.00;;;;;;;13.49;100.00;101637.50;5038756;28;20029;-69
2022/10/30 03:16:28;;;;;;;0.10;0.10;;;;;;;13.38;100.00;101617.72;5041671;28;20036;-69
2022/10/30 03:18:54;;;;;;;0.10;0.10;;;;;;;13.49;100.00;101632.13;5037927;28;20024;-69
2022/10/30 03:21:21;;;;;;;0.10;0.10;;;;;;;13.55;100.00;101640.72;5040677;28;20033;-69
2022/10/30 03:23:46;;;;;;;0.10;0.10;;;;;;;13.56;100.00;101637.03;5039310;28;20020;-68
2022/10/30 03:26:11;;;;;;;0.10;0.10;;;;;;;13.49;100.00;101629.41;5041219;28;20031;-69
2022/10/30 03:28:37;;;;;;;0.25;0.25;;;;;;;13.51;100.00;101626.59;5036971;28;20028;-69
2022/10/30 03:31:07;;;;;;;0.10;0.10;;;;;;;13.44;100.00;101630.75;5040875;28;20052;-69
2022/10/30 03:33:33;;;;;;;0.00;0.00;;;;;;;13.27;100.00;101621.25;5038420;28;20378;-69
2022/10/30 03:35:59;;;;;;;0.10;0.10;;;;;;;13.31;100.00;101633.50;5024731;28;20036;-69
2022/10/30 03:38:25;;;;;;;0.10;0.10;;;;;;;13.32;100.00;101641.47;5025750;28;20051;-69
2022/10/30 03:40:50;;;;;;;0.10;0.10;;;;;;;13.28;100.00;101613.03;5021752;28;20043;-69
2022/10/30 03:43:16;;;;;;;0.20;0.20;;;;;;;13.44;100.00;101631.59;5042546;28;20063;-69
2022/10/30 03:45:46;;;;;;;0.10;0.10;;;;;;;13.40;100.00;101630.09;5025743;28;20025;-69
2022/10/30 03:48:11;;;;;;;0.05;0.05;;;;;;;13.37;100.00;101640.25;5041727;28;20033;-69
2022/10/30 03:50:36;;;;;;;0.00;0.00;;;;;;;13.24;100.00;101638.53;5042792;28;20547;-69
2022/10/30 03:53:02;;;;;;;0.10;0.10;;;;;;;13.04;100.00;101632.78;5039718;28;20075;-69
2022/10/30 03:55:27;;;;;;;0.10;0.10;;;;;;;12.73;100.00;101627.00;5045197;28;20053;-69
2022/10/30 03:57:53;;;;;;;0.10;0.10;;;;;;;12.79;100.00;101638.31;5040500;28;20034;-69
2022/10/30 04:00:18;;;;;;;0.10;0.10;;;;;;;12.86;100.00;101648.50;5045843;28;20516;-69
2022/10/30 04:02:47;;;;;;;0.10;0.10;;;;;;;12.92;100.00;101647.22;5038254;28;20064;-69
2022/10/30 04:05:14;;;;;;;0.10;0.10;;;;;;;12.98;100.00;101651.28;5017956;28;20021;-69
2022/10/30 04:07:39;;;;;;;0.08;0.08;;;;;;;13.01;100.00;101634.88;5021592;28;20095;-69
2022/10/30 04:10:05;;;;;;;0.00;0.00;;;;;;;12.89;100.00;101615.09;5036065;28;20159;-69
2022/10/30 04:12:30;;;;;;;0.10;0.10;;;;;;;12.92;100.00;101619.38;5023939;28;20051;-69
2022/10/30 04:14:55;;;;;;;0.10;0.10;;;;;;;13.09;100.00;101648.66;5036363;28;20044;-69
2022/10/30 04:17:21;;;;;;;0.10;0.10;;;;;;;13.03;100.00;101638.31;5020966;28;20458;-69
2022/10/30 04:19:46;;;;;;;0.10;0.10;;;;;;;13.18;100.00;101650.63;5039294;28;20536;-69
2022/10/30 04:22:11;;;;;;;0.10;0.10;;;;;;;13.19;100.00;101640.72;5037699;28;20087;-69
2022/10/30 04:24:38;;;;;;;0.00;0.00;;;;;;;13.25;100.00;101656.41;5037785;28;20715;-69
2022/10/30 04:27:04;;;;;;;0.10;0.10;;;;;;;13.20;100.00;101655.91;5040975;28;20579;-69
2022/10/30 04:29:29;;;;;;;0.10;0.10;;;;;;;13.16;100.00;101657.97;5024342;28;20505;-69
2022/10/30 04:31:54;;;;;;;0.00;0.00;;;;;;;13.14;100.00;101659.91;5038897;28;20134;-69
2022/10/30 04:34:19;;;;;;;0.10;0.10;;;;;;;13.13;100.00;101657.34;5028030;28;20037;-69
2022/10/30 04:36:45;;;;;;;0.10;0.10;;;;;;;13.10;100.00;101652.19;5020734;28;20087;-69
2022/10/30 04:39:10;;;;;;;0.10;0.10;;;;;;;13.04;100.00;101653.53;5034427;28;20033;-69
2022/10/30 04:41:35;;;;;;;0.10;0.10;;;;;;;12.94;100.00;101647.97;5038551;28;20061;-69
2022/10/30 04:44:01;;;;;;;0.10;0.10;;;;;;;12.71;100.00;101620.03;5017379;28;20056;-69
2022/10/30 04:46:26;;;;;;;0.10;0.10;;;;;;;12.71;100.00;101610.09;5021380;28;20033;-69
2022/10/30 04:48:52;;;;;;;0.15;0.15;;;;;;;12.88;100.00;101638.47;5042526;28;20032;-69
2022/10/30 04:51:17;;;;;;;0.10;0.10;;;;;;;12.90;100.00;101644.63;5019841;28;20135;-69
2022/10/30 04:53:42;;;;;;;0.00;0.00;;;;;;;12.90;100.00;101650.00;5022706;28;20500;-69
2022/10/30 04:56:07;;;;;;;0.10;0.10;;;;;;;12.98;100.00;101648.56;5038430;28;20041;-69
2022/10/30 04:58:33;;;;;;;0.10;0.10;;;;;;;13.00;100.00;101644.78;5021790;28;20095;-69
2022/10/30 05:01:01;;;;;;;0.00;0.00;;;;;;;13.05;100.00;101642.59;5036934;28;20040;-69
2022/10/30 05:03:27;;;;;;;0.10;0.10;;;;;;;13.08;100.00;101643.34;5022333;28;20036;-69
2022/10/30 05:06:02;;;;;;;0.05;0.05;;;;;;;13.04;100.00;101631.94;5044483;28;20033;-70
2022/10/30 05:08:28;;;;;;;0.10;0.10;;;;;;;13.01;100.00;101624.94;5007086;28;20039;-69
2022/10/30 05:10:53;;;;;;;0.10;0.10;;;;;;;12.82;100.00;101601.25;5017469;28;20033;-69
2022/10/30 05:13:19;;;;;;;0.10;0.10;;;;;;;12.91;100.00;101613.16;5016572;28;20460;-69
2022/10/30 05:15:44;;;;;;;0.10;0.10;;;;;;;12.78;100.00;101607.81;5024963;28;20039;-69
2022/10/30 05:18:09;;;;;;;0.10;0.10;;;;;;;12.84;100.00;101619.97;5022056;28;20052;-69
2022/10/30 05:20:35;;;;;;;0.10;0.10;;;;;;;12.69;100.00;101589.66;5036597;28;20036;-68
2022/10/30 05:23:00;;;;;;;0.10;0.10;;;;;;;12.82;100.00;101617.41;5039260;28;20079;-68
2022/10/30 05:25:26;;;;;;;0.10;0.10;;;;;;;12.85;100.00;101614.44;5042496;28;20673;-70
2022/10/30 05:27:58;;;;;;;0.05;0.05;;;;;;;12.88;100.00;101621.47;5044363;28;20459;-68
2022/10/30 05:30:25;;;;;;;0.00;0.00;;;;;;;12.81;100.00;101615.69;5019327;28;20040;-68
2022/10/30 05:32:50;;;;;;;0.10;0.10;;;;;;;12.81;100.00;101626.47;5021051;28;20036;-68
2022/10/30 05:35:15;;;;;;;0.10;0.10;;;;;;;12.79;100.00;101630.22;5023514;28;20362;-68
2022/10/30 05:37:41;;;;;;;0.00;0.00;;;;;;;12.77;100.00;101622.28;5040162;28;20594;-68
2022/10/30 05:40:06;;;;;;;0.10;0.10;;;;;;;12.80;100.00;101631.94;5034983;28;20040;-68
2022/10/30 05:42:32;;;;;;;0.10;0.10;;;;;;;12.78;100.00;101631.19;5040199;28;20041;-68
2022/10/30 05:44:57;;;;;;;0.10;0.10;;;;;;;12.78;100.00;101621.31;5038970;28;20060;-68
2022/10/30 05:47:22;;;;;;;0.10;0.10;;;;;;;12.78;100.00;101628.50;5043659;28;20024;-68
2022/10/30 05:49:48;;;;;;;0.03;0.03;;;;;;;12.74;100.00;101625.19;5037487;28;20100;-68
2022/10/30 05:52:13;;;;;;;0.00;0.00;;;;;;;12.72;100.00;101632.53;5039184;28;20475;-68
2022/10/30 05:54:38;;;;;;;0.10;0.10;;;;;;;12.70;100.00;101642.56;5038269;28;20515;-70
2022/10/30 05:57:04;;;;;;;0.10;0.10;;;;;;;12.58;100.00;101641.63;5039051;28;20429;-70
2022/10/30 05:59:29;;;;;;;0.10;0.10;;;;;;;12.51;100.00;101648.44;5040548;28;20029;-70
2022/10/30 06:01:55;;;;;;;0.10;0.10;;;;;;;12.43;100.00;101649.00;5034073;28;20115;-70
2022/10/30 06:04:20;;;;;;;0.10;0.10;;;;;;;12.39;100.00;101651.06;5035529;28;20082;-70
2022/10/30 06:06:46;;;;;;;0.10;0.10;;;;;;;12.33;100.00;101645.25;5044571;28;20029;-70
2022/10/30 06:09:11;;;;;;;0.10;0.10;;;;;;;12.23;100.00;101654.00;5040004;28;20488;-70
2022/10/30 06:11:36;;;;;;;0.10;0.10;;;;;;;12.12;100.00;101651.22;5038363;28;20517;-70
2022/10/30 06:14:01;;;;;;;0.10;0.10;;;;;;;12.05;100.00;101647.25;5032713;28;20509;-70
2022/10/30 06:16:27;;;;;;;0.10;0.10;;;;;;;11.90;100.00;101641.94;5037358;28;20414;-70
2022/10/30 06:18:52;;;;;;;0.10;0.10;;;;;;;11.72;100.00;101643.25;5037615;28;20488;-70
2022/10/30 06:21:17;;;;;;;0.10;0.10;;;;;;;11.62;100.00;101640.34;5037730;28;20148;-70
2022/10/30 06:23:43;;;;;;;0.10;0.10;;;;;;;11.41;100.00;101638.16;5035179;28;20135;-70
2022/10/30 06:26:08;;;;;;;0.15;0.15;;;;;;;11.15;100.00;101645.31;5041848;28;20140;-70
2022/10/30 06:28:33;;;;;;;0.10;0.10;;;;;;;10.80;100.00;101652.94;5036800;28;20686;-69
2022/10/30 06:30:59;;;;;;;0.10;0.10;;;;;;;10.49;100.00;101652.25;5032161;28;20079;-70
2022/10/30 06:33:24;;;;;;;0.00;0.00;;;;;;;10.31;100.00;101654.28;5019859;28;20032;-70
2022/10/30 06:35:49;;;;;;;0.05;0.05;;;;;;;10.24;100.00;101644.88;5030102;28;20481;-70
2022/10/30 06:38:15;;;;;;;0.10;0.10;;;;;;;10.38;100.00;101659.22;5021856;28;20044;-70
2022/10/30 06:40:41;;;;;;;0.10;0.10;;;;;;;10.35;100.00;101665.69;5039321;28;20032;-70
2022/10/30 06:43:06;;;;;;;0.10;0.10;;;;;;;10.37;100.00;101655.69;5037514;28;20511;-70
2022/10/30 06:45:32;;;;;;;0.10;0.10;;;;;;;10.39;100.00;101650.25;5038132;28;20075;-70
2022/10/30 06:47:58;;;;;;;0.10;0.10;;;;;;;10.40;100.00;101641.25;5034659;28;20052;-70
2022/10/30 06:50:24;;;;;;;0.00;0.00;;;;;;;10.30;100.00;101641.81;5032659;28;20555;-69
2022/10/30 06:52:49;;;;;;;0.30;0.10;;;;;;;10.29;100.00;101642.78;5033449;28;20057;-69
2022/10/30 06:55:14;;;;;;;0.10;0.10;;;;;;;10.38;100.00;101638.63;5037442;28;20392;-69
2022/10/30 06:57:40;;;;;;;0.10;0.10;;;;;;;10.46;100.00;101638.16;5035267;28;20117;-70
2022/10/30 07:00:06;;;;;;;0.00;0.00;;;;;;;10.17;100.00;101597.94;5038044;28;20020;-70
2022/10/30 07:02:31;;;;;;;0.10;0.10;;;;;;;10.34;100.00;101629.06;5032827;28;20040;-69
2022/10/30 07:04:57;;;;;;;0.10;0.10;;;;;;;10.30;100.00;101638.25;5021509;28;20024;-70
2022/10/30 07:07:22;;;;;;;0.10;0.10;;;;;;;10.24;100.00;101642.22;5039811;28;20025;-69
2022/10/30 07:09:47;;;;;;;0.00;0.00;;;;;;;10.21;100.00;101637.03;5041175;28;20953;-69
2022/10/30 07:12:13;;;;;;;0.00;0.00;;;;;;;10.20;100.00;101638.00;5040602;28;20036;-68
2022/10/30 07:14:38;;;;;;;0.10;0.10;;;;;;;10.28;100.00;101642.84;5045086;28;20467;-69
2022/10/30 07:17:04;;;;;;;0.00;0.00;;;;;;;10.21;100.00;101628.97;5025158;28;20032;-69
2022/10/30 07:19:29;;;;;;;0.10;0.10;;;;;;;10.27;100.00;101627.72;5040608;28;20036;-68
2022/10/30 07:21:55;;;;;;;0.10;0.10;;;;;;;10.44;100.00;101642.78;5021644;28;20029;-68
2022/10/30 07:24:20;;;;;;;0.05;0.05;;;;;;;10.57;100.00;101643.72;5039121;28;20063;-69
2022/10/30 07:26:45;;;;;;;0.10;0.10;;;;;;;10.65;100.00;101632.47;5018633;28;20040;-69
2022/10/30 07:29:11;;;;;;;0.10;0.10;;;;;;;10.69;100.00;101623.25;5040660;28;20025;-69
2022/10/30 07:31:36;;;;;;;0.10;0.10;;;;;;;10.79;100.00;101621.66;5038989;28;20098;-68
2022/10/30 07:34:02;;;;;;;0.10;0.10;;;;;;;11.03;100.00;101630.88;5040794;28;20025;-69
2022/10/30 07:36:27;;;;;;;0.10;0.10;;;;;;;11.21;100.00;101621.56;5037638;28;20025;-69
2022/10/30 07:38:52;;;;;;;0.10;0.10;;;;;;;11.24;100.00;101609.75;5022579;28;20068;-69
2022/10/30 07:41:18;;;;;;;0.10;0.10;;;;;;;11.38;100.00;101625.78;5040352;28;20029;-68
2022/10/30 07:43:44;;;;;;;0.10;0.10;;;;;;;11.50;100.00;101628.63;5036058;28;20496;-69
2022/10/30 07:46:09;;;;;;;0.10;0.10;;;;;;;11.65;100.00;101632.06;5039262;28;20025;-69
2022/10/30 07:48:35;;;;;;;0.10;0.10;;;;;;;11.79;100.00;101625.69;5036817;28;20113;-69
2022/10/30 07:51:00;;;;;;;0.10;0.10;;;;;;;11.93;100.00;101632.78;5037058;28;20039;-69
2022/10/30 07:53:26;;;;;;;0.10;0.10;;;;;;;12.01;100.00;101633.16;5038448;28;20036;-70
2022/10/30 07:55:51;;;;;;;0.00;0.00;;;;;;;12.06;100.00;101633.69;5022465;28;20455;-69
2022/10/30 07:58:16;;;;;;;0.10;0.10;;;;;;;12.13;100.00;101631.41;5038685;28;20112;-69
2022/10/30 08:00:41;;;;;;;0.10;0.10;;;;;;;12.21;100.00;101630.84;5043528;28;20560;-69
2022/10/30 08:03:08;;;;;;;0.20;0.10;;;;;;;12.33;100.00;101632.66;5042910;28;20025;-69
2022/10/30 08:05:33;;;;;;;0.10;0.10;;;;;;;12.47;100.00;101628.06;5044997;28;20532;-70
2022/10/30 08:07:59;;;;;;;0.10;0.10;;;;;;;12.59;100.00;101627.19;5044093;28;20086;-69
2022/10/30 08:10:24;;;;;;;0.10;0.10;;;;;;;12.69;100.00;101624.66;5039435;28;20078;-69
2022/10/30 08:12:49;;;;;;;0.10;0.10;;;;;;;12.82;100.00;101628.19;5044663;28;20476;-69
2022/10/30 08:15:15;;;;;;;0.10;0.10;;;;;;;13.01;100.00;101634.88;5022817;28;20128;-69
2022/10/30 08:17:42;;;;;;;0.10;0.10;;;;;;;13.12;100.00;101636.75;5041756;28;20554;-69
2022/10/30 08:20:08;;;;;;;0.10;0.10;;;;;;;13.18;100.00;101631.75;5043225;28;20515;-70
2022/10/30 08:22:33;;;;;;;0.10;0.10;;;;;;;13.38;100.00;101632.03;5038102;28;20024;-69
2022/10/30 08:24:58;;;;;;;0.10;0.10;;;;;;;13.43;100.00;101610.16;5040596;28;20465;-70
2022/10/30 08:27:24;;;;;;;0.10;0.10;;;;;;;13.69;100.00;101632.38;5027712;28;20107;-69
2022/10/30 08:29:49;;;;;;;0.10;0.10;;;;;;;13.88;100.00;101637.19;5045081;28;20033;-69
2022/10/30 08:32:14;;;;;;;0.10;0.10;;;;;;;14.06;100.00;101626.78;5040843;28;20075;-69
2022/10/30 08:34:40;;;;;;;0.10;0.10;;;;;;;14.16;100.00;101624.19;5045945;28;20056;-69
2022/10/30 08:37:06;;;;;;;0.10;0.10;;;;;;;14.24;100.00;101610.94;5038244;28;20148;-69
2022/10/30 08:39:32;;;;;;;0.10;0.10;;;;;;;14.39;100.00;101619.63;5039781;28;20040;-69
2022/10/30 08:41:58;;;;;;;0.10;0.10;;;;;;;14.40;100.00;101593.47;5039025;28;20032;-69
2022/10/30 08:44:23;;;;;;;0.20;0.20;;;;;;;14.68;100.00;101612.78;5025597;28;20040;-69
2022/10/30 08:46:49;;;;;;;0.10;0.10;;;;;;;14.75;100.00;101611.34;5041354;28;20021;-68
2022/10/30 08:49:14;;;;;;;0.20;0.20;;;;;;;14.82;100.00;101615.25;5039706;28;20040;-70
2022/10/30 08:51:39;;;;;;;0.10;0.10;;;;;;;14.99;100.00;101623.78;5026438;28;20590;-68
2022/10/30 08:54:04;;;;;;;0.00;0.00;;;;;;;15.10;100.00;101641.78;5044382;28;20059;-68
2022/10/30 08:56:30;;;;;;;0.10;0.10;;;;;;;15.02;100.00;101637.03;5043677;28;20029;-70
2022/10/30 08:58:55;;;;;;;0.10;0.10;;;;;;;15.03;100.00;101633.34;5036253;28;20113;-68
2022/10/30 09:01:20;;;;;;;0.10;0.10;;;;;;;15.07;100.00;101634.81;5000771;28;20037;-70
2022/10/30 09:03:46;;;;;;;0.10;0.10;;;;;;;15.06;100.00;101626.81;5044212;28;20033;-69
2022/10/30 09:06:12;;;;;;;0.08;0.08;;;;;;;15.11;100.00;101606.50;5047599;28;20123;-69
2022/10/30 09:08:37;;;;;;;0.00;0.00;;;;;;;15.35;100.00;101613.53;5038015;28;20075;-68
2022/10/30 09:11:03;;;;;;;0.35;0.10;;;;;;;15.51;100.00;101614.88;5025331;28;20028;-70
2022/10/30 09:13:28;;;;;;;0.25;0.10;;;;;;;15.57;100.00;101606.25;5043329;28;20116;-70
2022/10/30 09:15:54;;;;;;;0.00;0.00;;;;;;;15.88;100.00;101626.09;5024899;28;20032;-70
2022/10/30 09:18:20;;;;;;;0.13;0.13;;;;;;;16.10;100.00;101631.47;5029288;28;20717;-69
2022/10/30 09:20:48;;;;;;;0.08;0.08;;;;;;;16.16;100.00;101614.66;5025975;28;20036;-69
2022/10/30 09:23:13;;;;;;;0.03;0.03;;;;;;;16.26;100.00;101591.16;5024473;28;20032;-69
2022/10/30 09:25:38;;;;;;;0.10;0.10;;;;;;;16.65;100.00;101622.91;5036976;28;20440;-69
2022/10/30 09:28:04;;;;;;;0.10;0.10;;;;;;;16.86;100.00;101625.50;5037326;28;20036;-70
2022/10/30 09:30:29;;;;;;;0.10;0.10;;;;;;;17.09;100.00;101617.94;5039122;28;20436;-70
2022/10/30 09:32:59;;;;;;;0.10;0.10;;;;;;;17.20;100.00;101606.13;5041316;28;20131;-70
2022/10/30 09:35:25;;;;;;;0.10;0.10;;;;;;;17.46;100.00;101612.78;5039547;28;20662;-69
2022/10/30 09:37:50;;;;;;;0.10;0.10;;;;;;;17.50;100.00;101608.78;5039712;28;20029;-71
2022/10/30 09:40:21;;;;;;;0.10;0.10;;;;;;;17.67;98.77;101597.13;5019134;28;20029;-69
2022/10/30 09:42:48;;;;;;;0.10;0.10;;;;;;;17.93;95.73;101596.47;5036924;28;20292;-70
2022/10/30 09:45:44;;;;;;;0.10;0.10;;;;;;;18.09;94.74;101600.44;5041067;28;20033;-70
2022/10/30 09:48:12;;;;;;;0.10;0.10;;;;;;;18.14;95.01;101600.88;5039894;28;20082;-69
2022/10/30 09:50:46;;;;;;;0.10;0.10;;;;;;;18.49;92.42;101593.75;5044105;28;20567;-69
2022/10/30 09:53:30;;;;;;;0.10;0.10;;;;;;;18.88;92.28;101603.50;5027514;28;20139;-69
2022/10/30 09:56:14;;;;;;;0.10;0.10;;;;;;;19.00;88.57;101609.59;5040536;28;20029;-67
2022/10/30 09:58:57;;;;;;;0.00;0.00;;;;;;;19.09;85.73;101625.00;5019098;28;20033;-69
2022/10/30 10:01:26;;;;;;;0.00;0.00;;;;;;;19.19;85.46;101619.44;5023523;28;20025;-69
2022/10/30 10:04:09;;;;;;;0.10;0.10;;;;;;;19.45;87.40;101619.50;5040871;28;20041;-70
2022/10/30 10:06:38;;;;;;;0.10;0.10;;;;;;;19.47;83.25;101602.97;5025145;28;20060;-70
2022/10/30 10:09:13;;;;;;;0.10;0.10;;;;;;;19.37;84.52;101633.03;5024524;28;20035;-69
2022/10/30 10:11:41;;;;;;;0.10;0.10;;;;;;;19.47;83.94;101632.94;5019350;28;20037;-68
2022/10/30 10:14:12;;;;;;;0.10;0.10;;;;;;;19.69;85.92;101633.41;5037100;28;20029;-71
2022/10/30 10:16:39;;;;;;;0.00;0.00;;;;;;;19.85;80.37;101638.13;5023593;28;20482;-69
2022/10/30 10:19:11;;;;;;;0.10;0.10;;;;;;;19.36;83.10;101641.34;5024826;28;20439;-69
2022/10/30 10:21:42;;;;;;;0.10;0.10;;;;;;;19.18;84.28;101644.97;5039795;28;20035;-69
2022/10/30 10:24:32;;;;;;;0.10;0.10;;;;;;;18.94;87.13;101640.09;5037756;28;20024;-69
2022/10/30 10:27:16;;;;;;;0.10;0.10;;;;;;;18.82;89.06;101642.19;5018465;28;20051;-70
2022/10/30 10:30:04;;;;;;;0.03;0.03;;;;;;;18.83;88.72;101641.19;5044734;28;20025;-68
2022/10/30 10:32:41;;;;;;;0.00;0.00;;;;;;;18.83;90.16;101650.22;5023647;28;20473;-70
2022/10/30 10:35:40;;;;;;;0.10;0.10;;;;;;;18.94;88.57;101638.25;5042214;28;20071;-70
2022/10/30 10:38:30;;;;;;;0.00;0.00;;;;;;;19.29;87.12;101630.25;5042736;28;20687;-69
2022/10/30 10:41:37;;;;;;;0.00;0.00;;;;;;;19.60;86.08;101622.47;5044058;28;20033;-69
2022/10/30 10:44:19;;;;;;;0.00;0.00;;;;;;;19.98;82.96;101627.69;5035294;28;20029;-69
2022/10/30 10:47:18;;;;;;;0.00;0.00;;;;;;;20.35;81.71;101629.19;5023077;28;20033;-69
2022/10/30 10:50:02;;;;;;;0.00;0.00;;;;;;;20.45;81.78;101609.09;5037166;28;20028;-70
2022/10/30 10:52:38;;;;;;;0.10;0.10;;;;;;;20.73;78.32;101623.31;5022969;28;20029;-70
2022/10/30 10:55:08;;;;;;;0.03;0.03;;;;;;;21.15;75.63;101620.66;5024682;28;20060;-69
2022/10/30 10:57:35;;;;;;;0.10;0.10;;;;;;;21.47;74.76;101624.38;5023232;28;20036;-68
2022/10/30 11:00:07;;;;;;;0.10;0.10;;;;;;;21.68;74.94;101612.94;5025737;28;20040;-71
2022/10/30 11:02:40;;;;;;;0.10;0.10;;;;;;;21.93;72.46;101615.59;5033425;28;20036;-71
2022/10/30 11:05:28;;;;;;;0.10;0.10;;;;;;;22.14;73.30;101607.66;5022426;28;20031;-71
2022/10/30 11:07:58;;;;;;;0.10;0.10;;;;;;;22.22;72.55;101608.66;5036953;28;20250;-72
2022/10/30 11:10:25;;;;;;;0.10;0.10;;;;;;;22.14;69.85;101598.59;5016905;28;20108;-72
2022/10/30 11:12:50;;;;;;;0.10;0.10;;;;;;;22.62;68.11;101614.97;5022119;28;20456;-70
2022/10/30 11:15:25;;;;;;;0.10;0.10;;;;;;;22.83;68.39;101617.03;5019371;28;20050;-72
2022/10/30 11:18:07;;;;;;;0.10;0.10;;;;;;;23.52;64.55;101602.44;5022911;28;20033;-70
2022/10/30 11:21:08;;;;;;;0.10;0.10;;;;;;;23.98;60.31;101607.94;5046865;28;20058;-70
2022/10/30 11:23:39;;;;;;;0.10;0.10;;;;;;;24.09;61.62;101599.25;5013642;28;20482;-70
2022/10/30 11:26:16;;;;;;;0.10;0.10;;;;;;;24.38;59.23;101601.06;5052736;28;20036;-70